Wakpala, South Dakota
Current Conditions -  °F | °C
As of 3:52 PM on Tuesday 21 Oct 2014 (Local Time) from KMBG Reporting Station
Clear Clear  
Wind Chill: 83°   Ceiling: Unl
Heat Index: 83°   Visibility: 10mi
Dew Point: 44°   Wind: 24mph
Humidity: 25%   Direction: 180°S
Pressure: 29.69"   Gusts: 37mph
Location:  45.66°N, 100.54°W
Report Text: KMBG 212152Z AUTO 18021G32KT 10SM CLR 28/07 A2969 RMK AO2 PK WND 18032/2148 SLP044 T02830067 $
Loading
Personal Weather Stations






























Interactive Weather Map
Tropical Storm Tracking
New forecast layout! Learn more

10-Day Weather Forecast

Advertisements
Track Severe Weather on mobile